Time;durP1;ratioP1;P1;durP2;ratioP2;P2;SDS_P1;SDS_P2;PMS_P1;PMS_P2;Temp;Humidity;BMP_temperature;BMP_pressure;BME280_temperature;BME280_humidity;BME280_pressure;Samples;Min_cycle;Max_cycle;Signal;HPM_P1;HPM_P2
2021/10/05 00:02:29;0.00;0.00;0.62;0.00;0.00;0.62;1.30;0.73;;;27.60;29.70;;;;;;2257395;61;20398;-65
2021/10/05 00:05:13;0.00;0.00;0.62;0.00;0.00;0.62;1.30;0.80;;;27.50;29.70;;;;;;2257185;61;20510;-66
2021/10/05 00:07:58;0.00;0.00;0.62;0.00;0.00;0.62;1.40;0.70;;;27.50;29.60;;;;;;2257036;61;20422;-64
2021/10/05 00:10:42;0.00;0.00;0.62;0.00;0.00;0.62;1.20;0.70;;;27.50;29.60;;;;;;2257711;61;20430;-62
2021/10/05 00:13:28;0.00;0.00;0.62;0.00;0.00;0.62;1.77;1.07;;;27.50;29.60;;;;;;2256991;61;20354;-62
2021/10/05 00:16:12;0.00;0.00;0.62;0.00;0.00;0.62;1.80;0.90;;;27.50;29.50;;;;;;2257449;61;20429;-63
2021/10/05 00:18:57;0.00;0.00;0.62;0.00;0.00;0.62;1.20;0.80;;;27.50;29.40;;;;;;2257643;61;20746;-62
2021/10/05 00:21:42;0.00;0.00;0.62;0.00;0.00;0.62;1.40;0.90;;;27.50;29.80;;;;;;2256932;61;20366;-62
2021/10/05 00:24:27;0.00;0.00;0.62;0.00;0.00;0.62;2.07;1.03;;;27.40;29.10;;;;;;2257359;61;20475;-63
2021/10/05 00:27:11;0.00;0.00;0.62;0.00;0.00;0.62;2.43;1.10;;;27.40;29.00;;;;;;2257175;61;20430;-63
2021/10/05 00:29:58;0.00;0.00;0.62;0.00;0.00;0.62;1.20;0.70;;;27.40;29.00;;;;;;2257049;61;20355;-61
2021/10/05 00:32:43;0.00;0.00;0.62;0.00;0.00;0.62;1.70;1.07;;;27.30;29.00;;;;;;2257515;61;20401;-62
2021/10/05 00:35:28;0.00;0.00;0.62;0.00;0.00;0.62;1.50;1.10;;;27.30;28.90;;;;;;2257153;61;20619;-63
2021/10/05 00:38:13;0.00;0.00;0.62;0.00;0.00;0.62;1.50;0.90;;;27.20;28.80;;;;;;2257267;61;20374;-63
2021/10/05 00:40:57;0.00;0.00;0.62;0.00;0.00;0.62;1.50;1.10;;;27.20;28.80;;;;;;2257641;61;20585;-63
2021/10/05 00:43:42;0.00;0.00;0.62;0.00;0.00;0.62;1.60;1.00;;;27.20;28.80;;;;;;2256822;61;20399;-63
2021/10/05 00:46:28;0.00;0.00;0.62;0.00;0.00;0.62;1.50;1.17;;;27.10;28.80;;;;;;2257298;61;20363;-62
2021/10/05 00:49:13;0.00;0.00;0.62;0.00;0.00;0.62;1.43;1.07;;;27.10;28.80;;;;;;2257645;61;20438;-61
2021/10/05 00:51:59;0.00;0.00;0.62;0.00;0.00;0.62;1.50;0.90;;;27.10;28.80;;;;;;2257213;61;20363;-63
2021/10/05 00:54:45;0.00;0.00;0.62;0.00;0.00;0.62;1.73;1.03;;;27.00;28.80;;;;;;2257409;61;20414;-62
2021/10/05 00:57:30;0.00;0.00;0.62;0.00;0.00;0.62;1.90;1.30;;;27.00;28.80;;;;;;2257204;61;20374;-60
2021/10/05 01:00:15;0.00;0.00;0.62;0.00;0.00;0.62;1.33;0.97;;;27.00;28.80;;;;;;2257200;61;20735;-60
2021/10/05 01:03:01;0.00;0.00;0.62;0.00;0.00;0.62;2.67;1.67;;;27.00;28.80;;;;;;2257458;61;20405;-61
2021/10/05 01:05:46;0.00;0.00;0.62;0.00;0.00;0.62;1.57;1.20;;;27.00;28.80;;;;;;2256800;61;20715;-62
2021/10/05 01:08:31;0.00;0.00;0.62;0.00;0.00;0.62;2.37;1.20;;;27.00;28.80;;;;;;2257500;61;20386;-63
2021/10/05 01:11:16;0.00;0.00;0.62;0.00;0.00;0.62;1.40;0.80;;;26.90;28.70;;;;;;2257646;61;20723;-63
2021/10/05 01:14:01;0.00;0.00;0.62;0.00;0.00;0.62;2.20;1.27;;;26.90;28.70;;;;;;2257380;61;20762;-62
2021/10/05 01:16:46;0.00;0.00;0.62;0.00;0.00;0.62;2.03;1.30;;;26.90;28.70;;;;;;2258282;61;20418;-62
2021/10/05 01:19:33;0.00;0.00;0.62;0.00;0.00;0.62;1.50;1.03;;;26.80;28.70;;;;;;2257810;61;20720;-62
2021/10/05 01:22:19;0.00;0.00;0.62;0.00;0.00;0.62;1.50;1.10;;;26.80;28.70;;;;;;2257885;61;20387;-61
2021/10/05 01:25:06;0.00;0.00;0.62;0.00;0.00;0.62;1.60;1.33;;;26.80;28.70;;;;;;2258168;61;20523;-62
2021/10/05 01:27:53;0.00;0.00;0.62;0.00;0.00;0.62;1.77;1.30;;;26.70;28.60;;;;;;2257396;61;20395;-62
2021/10/05 01:30:38;0.00;0.00;0.62;0.00;0.00;0.62;1.40;1.10;;;26.70;28.60;;;;;;2257932;61;20410;-62
2021/10/05 01:33:25;0.00;0.00;0.62;0.00;0.00;0.62;1.57;1.20;;;26.70;28.60;;;;;;2258139;61;20438;-62
2021/10/05 01:36:10;0.00;0.00;0.62;0.00;0.00;0.62;1.50;1.10;;;26.60;28.60;;;;;;2257687;61;20405;-61
2021/10/05 01:38:56;0.00;0.00;0.62;0.00;0.00;0.62;1.87;1.20;;;26.60;28.70;;;;;;2258327;61;20359;-62
2021/10/05 01:41:40;0.00;0.00;0.62;0.00;0.00;0.62;1.70;1.00;;;26.60;28.70;;;;;;2257804;61;20463;-62
2021/10/05 01:44:25;0.00;0.00;0.62;0.00;0.00;0.62;1.60;1.20;;;26.60;28.70;;;;;;2257365;61;20383;-62
2021/10/05 01:47:11;0.00;0.00;0.62;0.00;0.00;0.62;1.50;1.00;;;26.60;28.70;;;;;;2258195;61;20462;-62
2021/10/05 01:49:55;0.00;0.00;0.62;0.00;0.00;0.62;1.50;1.00;;;26.60;28.70;;;;;;2257394;61;20628;-62
2021/10/05 01:52:40;0.00;0.00;0.62;0.00;0.00;0.62;1.60;1.20;;;26.50;28.70;;;;;;2257672;61;20718;-63
2021/10/05 01:55:26;0.00;0.00;0.62;0.00;0.00;0.62;1.70;1.10;;;26.50;28.70;;;;;;2258105;61;20421;-62
2021/10/05 01:58:11;0.00;0.00;0.62;0.00;0.00;0.62;1.60;1.10;;;26.50;28.70;;;;;;2257449;61;20363;-62
2021/10/05 02:00:55;0.00;0.00;0.62;0.00;0.00;0.62;1.63;1.17;;;26.50;28.70;;;;;;2257878;61;20401;-62
2021/10/05 02:03:40;0.00;0.00;0.62;0.00;0.00;0.62;2.03;1.57;;;26.50;28.70;;;;;;2257468;61;20375;-62
2021/10/05 02:06:25;0.00;0.00;0.62;0.00;0.00;0.62;1.40;1.00;;;26.50;28.70;;;;;;2257480;61;20422;-61
2021/10/05 02:09:10;0.00;0.00;0.62;0.00;0.00;0.62;1.70;1.23;;;26.50;28.80;;;;;;2258223;61;20783;-62
2021/10/05 02:11:56;0.00;0.00;0.62;0.00;0.00;0.62;1.70;1.10;;;26.50;28.80;;;;;;2257344;61;20367;-62
2021/10/05 02:14:42;0.00;0.00;0.62;0.00;0.00;0.62;1.73;1.10;;;26.50;28.80;;;;;;2257163;61;20390;-62
2021/10/05 02:17:26;0.00;0.00;0.62;0.00;0.00;0.62;1.47;0.97;;;26.50;28.70;;;;;;2258120;61;20387;-61
2021/10/05 02:20:11;0.00;0.00;0.62;0.00;0.00;0.62;1.53;1.00;;;26.40;28.70;;;;;;2257309;61;20405;-62
2021/10/05 02:22:56;0.00;0.00;0.62;0.00;0.00;0.62;1.50;1.10;;;26.40;28.70;;;;;;2257769;61;20382;-62
2021/10/05 02:25:40;0.00;0.00;0.62;0.00;0.00;0.62;1.50;1.00;;;26.40;28.70;;;;;;2257354;61;20390;-61
2021/10/05 02:28:26;0.00;0.00;0.62;0.00;0.00;0.62;2.00;1.40;;;26.40;28.70;;;;;;2257550;61;20459;-62
2021/10/05 02:31:10;0.00;0.00;0.62;0.00;0.00;0.62;1.80;1.30;;;26.30;28.70;;;;;;2258059;61;20726;-61
2021/10/05 02:33:55;0.00;0.00;0.62;0.00;0.00;0.62;1.60;1.07;;;26.30;28.70;;;;;;2257059;61;20430;-62
2021/10/05 02:36:41;0.00;0.00;0.62;0.00;0.00;0.62;1.60;1.20;;;26.30;28.70;;;;;;2257577;61;20437;-61
2021/10/05 02:39:25;0.00;0.00;0.62;0.00;0.00;0.62;2.07;1.20;;;26.30;28.70;;;;;;2257977;61;20582;-62
2021/10/05 02:42:10;0.00;0.00;0.62;0.00;0.00;0.62;1.70;1.17;;;26.30;28.70;;;;;;2257192;61;20366;-62
2021/10/05 02:44:56;0.00;0.00;0.62;0.00;0.00;0.62;2.30;1.20;;;26.30;28.70;;;;;;2257508;61;20425;-62
2021/10/05 02:47:42;0.00;0.00;0.62;0.00;0.00;0.62;1.93;1.10;;;26.30;28.80;;;;;;2257755;61;20406;-61
2021/10/05 02:50:26;0.00;0.00;0.62;0.00;0.00;0.62;1.47;1.07;;;26.30;28.80;;;;;;2257399;61;20374;-61
2021/10/05 02:53:11;0.00;0.00;0.62;0.00;0.00;0.62;1.67;1.00;;;26.20;28.70;;;;;;2257735;61;20362;-62
2021/10/05 02:55:56;0.00;0.00;0.62;0.00;0.00;0.62;1.70;1.10;;;26.20;28.70;;;;;;2257491;61;20434;-61
2021/10/05 02:58:40;0.00;0.00;0.62;0.00;0.00;0.62;1.90;1.53;;;26.20;28.70;;;;;;2257517;61;20358;-62
2021/10/05 03:01:26;0.00;0.00;0.62;0.00;0.00;0.62;1.80;1.33;;;26.20;28.70;;;;;;2257928;61;20395;-62
2021/10/05 03:04:11;0.00;0.00;0.62;0.00;0.00;0.62;1.70;1.10;;;26.10;28.70;;;;;;2256981;61;20391;-63
2021/10/05 03:06:55;0.00;0.00;0.62;0.00;0.00;0.62;1.63;1.10;;;26.10;28.70;;;;;;2257427;61;20386;-62
2021/10/05 03:09:40;0.00;0.00;0.62;0.00;0.00;0.62;1.83;1.20;;;26.10;28.70;;;;;;2257980;61;20735;-60
2021/10/05 03:12:26;0.00;0.00;0.62;0.00;0.00;0.62;1.70;1.20;;;26.10;28.70;;;;;;2257587;61;20435;-62
2021/10/05 03:15:11;0.00;0.00;0.62;0.00;0.00;0.62;1.60;1.30;;;26.10;28.80;;;;;;2257909;61;20387;-61
2021/10/05 03:17:57;0.00;0.00;0.62;0.00;0.00;0.62;3.00;1.20;;;26.10;28.80;;;;;;2257453;61;20382;-63
2021/10/05 03:20:43;0.00;0.00;0.62;0.00;0.00;0.62;1.43;1.23;;;26.00;28.70;;;;;;2257387;61;20589;-61
2021/10/05 03:23:27;0.00;0.00;0.62;0.00;0.00;0.62;1.80;1.20;;;26.00;28.80;;;;;;2257723;61;20662;-62
2021/10/05 03:26:12;0.00;0.00;0.62;0.00;0.00;0.62;1.60;1.10;;;26.00;28.80;;;;;;2257114;61;20354;-62
2021/10/05 03:28:57;0.00;0.00;0.62;0.00;0.00;0.62;1.83;1.10;;;26.00;28.80;;;;;;2257440;61;20390;-60
2021/10/05 03:31:41;0.00;0.00;0.62;0.00;0.00;0.62;1.50;1.17;;;26.00;29.30;;;;;;2257867;61;20363;-63
2021/10/05 03:34:27;0.00;0.00;0.62;0.00;0.00;0.62;2.80;1.20;;;26.00;28.80;;;;;;2256822;61;20382;-65
2021/10/05 03:37:12;0.00;0.00;0.62;0.00;0.00;0.62;1.70;1.17;;;26.00;28.80;;;;;;2257605;61;20615;-64
2021/10/05 03:39:56;0.00;0.00;0.62;0.00;0.00;0.62;1.57;1.07;;;25.90;28.80;;;;;;2257325;61;20402;-61
2021/10/05 03:42:41;0.00;0.00;0.62;0.00;0.00;0.62;1.60;1.20;;;25.90;28.80;;;;;;2256961;61;20363;-63
2021/10/05 03:45:25;0.00;0.00;0.62;0.00;0.00;0.62;1.80;1.30;;;25.90;28.90;;;;;;2257730;61;20438;-63
2021/10/05 03:48:12;0.00;0.00;0.62;0.00;0.00;0.62;1.60;1.27;;;25.90;28.90;;;;;;2256883;61;20399;-62
2021/10/05 03:50:59;0.00;0.00;0.62;0.00;0.00;0.62;1.70;1.10;;;25.90;28.90;;;;;;2257412;61;20394;-61
2021/10/05 03:53:43;0.00;0.00;0.62;0.00;0.00;0.62;1.50;1.17;;;25.90;29.40;;;;;;2257493;61;20593;-64
2021/10/05 03:56:28;0.00;0.00;0.62;0.00;0.00;0.62;1.50;1.10;;;25.90;28.90;;;;;;2257031;61;20479;-63
2021/10/05 03:59:15;0.00;0.00;0.62;0.00;0.00;0.62;2.73;1.33;;;25.90;28.90;;;;;;2257541;61;20654;-61
2021/10/05 04:02:00;0.00;0.00;0.62;0.00;0.00;0.62;1.70;0.90;;;25.80;28.90;;;;;;2257159;61;20362;-62
2021/10/05 04:04:45;0.00;0.00;0.62;0.00;0.00;0.62;2.53;1.17;;;25.80;29.00;;;;;;2256966;61;20386;-65
2021/10/05 04:07:30;0.00;0.00;0.62;0.00;0.00;0.62;1.60;1.27;;;25.80;28.90;;;;;;2257727;61;20387;-64
2021/10/05 04:10:15;0.00;0.00;0.62;0.00;0.00;0.62;1.83;1.37;;;25.80;28.90;;;;;;2256946;61;20378;-64
2021/10/05 04:12:59;0.00;0.00;0.62;0.00;0.00;0.62;1.80;1.50;;;25.80;29.00;;;;;;2256897;61;20410;-64
2021/10/05 04:15:44;0.00;0.00;0.62;0.00;0.00;0.62;1.67;1.10;;;25.80;29.00;;;;;;2257704;61;20614;-63
2021/10/05 04:18:29;0.00;0.00;0.62;0.00;0.00;0.62;1.73;1.17;;;25.80;29.00;;;;;;2256987;61;20410;-62
2021/10/05 04:21:14;0.00;0.00;0.62;0.00;0.00;0.62;1.93;1.30;;;25.80;29.00;;;;;;2257389;61;20410;-63
2021/10/05 04:24:00;0.00;0.00;0.62;0.00;0.00;0.62;2.10;1.40;;;25.80;29.00;;;;;;2257109;61;20394;-63
2021/10/05 04:26:44;0.00;0.00;0.62;0.00;0.00;0.62;1.80;1.10;;;25.80;29.00;;;;;;2257067;61;20434;-64
2021/10/05 04:29:29;0.00;0.00;0.62;0.00;0.00;0.62;1.50;1.10;;;25.80;29.00;;;;;;2257677;61;20360;-63
2021/10/05 04:32:13;0.00;0.00;0.62;0.00;0.00;0.62;1.73;1.30;;;25.80;29.00;;;;;;2257076;61;20723;-65
2021/10/05 04:34:58;0.00;0.00;0.62;0.00;0.00;0.62;1.80;1.03;;;25.80;29.00;;;;;;2257113;61;20430;-64
2021/10/05 04:37:43;0.00;0.00;0.62;0.00;0.00;0.62;1.60;1.10;;;25.80;29.00;;;;;;2257683;61;20362;-65
2021/10/05 04:40:29;0.00;0.00;0.62;0.00;0.00;0.62;1.50;1.10;;;25.80;29.00;;;;;;2256988;61;20366;-64
2021/10/05 04:43:14;0.00;0.00;0.62;0.00;0.00;0.62;1.60;0.97;;;25.70;29.00;;;;;;2257063;61;20363;-62
2021/10/05 04:45:58;0.00;0.00;0.62;0.00;0.00;0.62;2.00;1.20;;;25.70;29.00;;;;;;2257624;61;20465;-65
2021/10/05 04:48:43;0.00;0.00;0.62;0.00;0.00;0.62;1.40;1.03;;;25.70;29.10;;;;;;2257591;61;20378;-63
2021/10/05 04:51:28;0.00;0.00;0.62;0.00;0.00;0.62;1.47;1.10;;;25.70;29.10;;;;;;2257856;61;20755;-64
2021/10/05 04:54:12;0.00;0.00;0.62;0.00;0.00;0.62;2.00;1.50;;;25.70;29.00;;;;;;2257712;61;20754;-62
2021/10/05 04:56:59;0.00;0.00;0.62;0.00;0.00;0.62;1.40;1.00;;;25.70;29.10;;;;;;2257828;61;20478;-63
2021/10/05 04:59:43;0.00;0.00;0.62;0.00;0.00;0.62;2.00;1.43;;;25.70;29.10;;;;;;2258330;61;20363;-63
2021/10/05 05:02:28;0.00;0.00;0.62;0.00;0.00;0.62;3.27;1.53;;;25.70;29.10;;;;;;2257427;61;20446;-64
2021/10/05 05:05:13;0.00;0.00;0.62;0.00;0.00;0.62;1.57;1.13;;;25.70;29.10;;;;;;2257719;61;20583;-63
2021/10/05 05:07:58;0.00;0.00;0.62;0.00;0.00;0.62;2.80;1.27;;;25.70;29.10;;;;;;2258254;61;20386;-62
2021/10/05 05:10:42;0.00;0.00;0.62;0.00;0.00;0.62;2.23;1.20;;;25.70;29.10;;;;;;2257591;61;20735;-63
2021/10/05 05:13:28;0.00;0.00;0.62;0.00;0.00;0.62;2.33;1.57;;;25.70;29.10;;;;;;2257965;61;20382;-63
2021/10/05 05:16:13;0.00;0.00;0.62;0.00;0.00;0.62;1.60;1.17;;;25.70;29.20;;;;;;2257888;61;20475;-64
2021/10/05 05:18:57;0.00;0.00;0.62;0.00;0.00;0.62;1.60;1.20;;;25.70;29.20;;;;;;2257500;61;20444;-64
2021/10/05 05:21:42;0.00;0.00;0.62;0.00;0.00;0.62;2.00;1.20;;;25.70;29.20;;;;;;2258134;61;20383;-62
2021/10/05 05:24:28;0.00;0.00;0.62;0.00;0.00;0.62;1.60;0.90;;;25.60;29.20;;;;;;2257425;61;20425;-61
2021/10/05 05:27:12;0.00;0.00;0.62;0.00;0.00;0.62;2.23;1.30;;;25.60;29.20;;;;;;2257770;61;20406;-62
2021/10/05 05:29:58;0.00;0.00;0.62;0.00;0.00;0.62;2.23;1.73;;;25.60;29.20;;;;;;2258266;61;20363;-64
2021/10/05 05:32:43;0.00;0.00;0.62;0.00;0.00;0.62;2.13;1.30;;;25.60;29.20;;;;;;2257224;61;20418;-62
2021/10/05 05:35:28;0.00;0.00;0.62;0.00;0.00;0.62;2.60;1.50;;;25.60;29.20;;;;;;2258154;61;20383;-62
2021/10/05 05:38:12;0.00;0.00;0.62;0.00;0.00;0.62;2.87;1.33;;;25.60;29.20;;;;;;2257787;61;20661;-62
2021/10/05 05:40:57;0.00;0.00;0.62;0.00;0.00;0.62;1.87;1.43;;;25.60;29.20;;;;;;2257486;61;20588;-64
2021/10/05 05:43:41;0.00;0.00;0.62;0.00;0.00;0.62;1.50;1.10;;;25.60;29.20;;;;;;2258082;61;20359;-63
2021/10/05 05:46:27;0.00;0.00;0.62;0.00;0.00;0.62;2.13;1.20;;;25.60;29.30;;;;;;2257335;61;20412;-62
2021/10/05 05:49:13;0.00;0.00;0.62;0.00;0.00;0.62;2.53;1.30;;;25.60;29.30;;;;;;2257867;61;20455;-64
2021/10/05 05:51:57;0.00;0.00;0.62;0.00;0.00;0.62;1.50;1.13;;;25.60;29.30;;;;;;2260529;61;20451;-62
2021/10/05 05:54:42;0.00;0.00;0.62;0.00;0.00;0.62;2.00;1.30;;;25.50;29.30;;;;;;2257093;61;20425;-62
2021/10/05 05:57:26;0.00;0.00;0.62;0.00;0.00;0.62;2.70;1.17;;;25.50;29.30;;;;;;2257958;61;20362;-60
2021/10/05 06:00:12;0.00;0.00;0.62;0.00;0.00;0.62;2.43;1.47;;;25.50;29.30;;;;;;2257694;61;20414;-62
2021/10/05 06:02:58;0.00;0.00;0.62;0.00;0.00;0.62;2.80;1.70;;;25.50;29.30;;;;;;2257256;61;20594;-63
2021/10/05 06:05:43;0.00;0.00;0.62;0.00;0.00;0.62;2.00;1.40;;;25.50;29.30;;;;;;2258142;61;20383;-64
2021/10/05 06:08:27;0.00;0.00;0.62;0.00;0.00;0.62;1.73;1.37;;;25.50;29.30;;;;;;2257228;61;20451;-60
2021/10/05 06:11:12;0.00;0.00;0.62;0.00;0.00;0.62;2.00;1.40;;;25.50;29.30;;;;;;2257693;61;20367;-63
2021/10/05 06:13:57;0.00;0.00;0.62;0.00;0.00;0.62;2.33;1.30;;;25.50;29.30;;;;;;2257915;61;20607;-64
2021/10/05 06:16:41;0.00;0.00;0.62;0.00;0.00;0.62;2.23;1.40;;;25.50;29.30;;;;;;2257385;61;20359;-63
2021/10/05 06:19:27;0.00;0.00;0.62;0.00;0.00;0.62;2.67;1.70;;;25.50;29.40;;;;;;2257704;61;20406;-60
2021/10/05 06:22:12;0.00;0.00;0.62;0.00;0.00;0.62;2.87;1.53;;;25.50;29.30;;;;;;2257917;61;20366;-60
2021/10/05 06:24:56;0.00;0.00;0.62;0.00;0.00;0.62;2.33;1.30;;;25.50;29.30;;;;;;2257469;61;20654;-63
2021/10/05 06:27:41;0.00;0.00;0.62;0.00;0.00;0.62;2.83;1.50;;;25.50;29.30;;;;;;2257990;61;20394;-61
2021/10/05 06:30:27;0.00;0.00;0.62;0.00;0.00;0.62;2.73;1.47;;;25.40;29.30;;;;;;2257550;61;20371;-62
2021/10/05 06:33:12;0.00;0.00;0.62;0.00;0.00;0.62;1.80;1.30;;;25.50;29.40;;;;;;2257543;61;20390;-64
2021/10/05 06:35:58;0.00;0.00;0.62;0.00;0.00;0.62;2.40;1.40;;;25.40;29.30;;;;;;2257899;61;20386;-64
2021/10/05 06:38:42;0.00;0.00;0.62;0.00;0.00;0.62;1.63;1.20;;;25.40;29.40;;;;;;2257351;61;20359;-62
2021/10/05 06:41:26;0.00;0.00;0.62;0.00;0.00;0.62;1.50;1.20;;;25.40;29.40;;;;;;2257666;61;20629;-64
2021/10/05 06:44:11;0.00;0.00;0.62;0.00;0.00;0.62;1.90;1.20;;;25.40;29.40;;;;;;2257773;61;20381;-63
2021/10/05 06:46:55;0.00;0.00;0.62;0.00;0.00;0.62;1.97;1.03;;;25.40;29.40;;;;;;2257475;61;20363;-64
2021/10/05 06:49:40;0.00;0.00;0.62;0.00;0.00;0.62;2.20;1.40;;;25.40;29.40;;;;;;2257913;61;20759;-64
2021/10/05 06:52:26;0.00;0.00;0.62;0.00;0.00;0.62;2.20;1.50;;;25.40;29.40;;;;;;2257614;61;20450;-66
2021/10/05 06:55:11;0.00;0.00;0.62;0.00;0.00;0.62;1.80;1.30;;;25.40;29.40;;;;;;2257293;61;20766;-64
2021/10/05 06:57:56;0.00;0.00;0.62;0.00;0.00;0.62;3.20;1.40;;;25.40;29.50;;;;;;2257870;61;20750;-66
2021/10/05 07:00:40;0.00;0.00;0.62;0.00;0.00;0.62;2.83;1.67;;;25.40;29.50;;;;;;2257127;61;20410;-65
2021/10/05 07:03:25;0.00;0.00;0.62;0.00;0.00;0.62;2.50;1.60;;;25.40;29.50;;;;;;2257332;61;20391;-62
2021/10/05 07:06:10;0.00;0.00;0.62;0.00;0.00;0.62;2.37;1.60;;;25.40;29.50;;;;;;2257922;61;20358;-64
2021/10/05 07:08:56;0.00;0.00;0.62;0.00;0.00;0.62;3.50;1.80;;;25.40;29.50;;;;;;2257268;61;20386;-63
2021/10/05 07:11:40;0.00;0.00;0.62;0.00;0.00;0.62;2.33;1.40;;;25.40;29.50;;;;;;2257156;61;20702;-67
2021/10/05 07:14:25;0.00;0.00;0.62;0.00;0.00;0.62;2.90;1.47;;;25.40;29.50;;;;;;2257274;61;20383;-66
2021/10/05 07:17:09;0.00;0.00;0.62;0.00;0.00;0.62;1.40;1.07;;;25.40;29.50;;;;;;2257199;61;20367;-65
2021/10/05 07:19:54;0.00;0.00;0.62;0.00;0.00;0.62;1.97;1.43;;;25.40;29.60;;;;;;2257781;61;20366;-65
2021/10/05 07:22:38;0.00;0.00;0.62;0.00;0.00;0.62;1.80;1.30;;;25.40;29.60;;;;;;2256951;61;20371;-65
2021/10/05 07:25:24;0.00;0.00;0.62;0.00;0.00;0.62;2.20;1.50;;;25.40;29.60;;;;;;2257369;61;20639;-65
2021/10/05 07:28:10;0.00;0.00;0.62;0.00;0.00;0.62;1.80;1.40;;;25.40;29.60;;;;;;2258246;61;20430;-62
2021/10/05 07:30:55;0.00;0.00;0.62;0.00;0.00;0.62;1.87;1.33;;;25.40;29.60;;;;;;2256750;61;20355;-65
2021/10/05 07:33:39;0.00;0.00;0.62;0.00;0.00;0.62;1.63;1.20;;;25.40;29.60;;;;;;2257004;61;20775;-64
2021/10/05 07:36:24;0.00;0.00;0.62;0.00;0.00;0.62;1.60;1.30;;;25.40;29.60;;;;;;2259745;61;20367;-65
2021/10/05 07:39:09;0.00;0.00;0.62;0.00;0.00;0.62;2.43;1.20;;;25.40;29.60;;;;;;2256777;61;20718;-61
2021/10/05 07:41:55;0.00;0.00;0.62;0.00;0.00;0.62;3.77;1.40;;;25.40;29.60;;;;;;2257369;61;20473;-63
2021/10/05 07:44:39;0.00;0.00;0.62;0.00;0.00;0.62;2.43;1.40;;;25.50;29.70;;;;;;2256567;61;20453;-64
2021/10/05 07:47:24;0.00;0.00;0.62;0.00;0.00;0.62;2.90;1.57;;;25.50;29.70;;;;;;2256708;61;20462;-65
2021/10/05 07:50:09;0.00;0.00;0.62;0.00;0.00;0.62;1.93;1.13;;;25.40;29.60;;;;;;2257734;61;20410;-66
2021/10/05 07:52:54;0.00;0.00;0.62;0.00;0.00;0.62;2.07;1.37;;;25.50;29.70;;;;;;2256908;61;20363;-65
2021/10/05 07:55:38;0.00;0.00;0.62;0.00;0.00;0.62;1.60;1.00;;;25.50;29.70;;;;;;2257369;61;20463;-64
2021/10/05 07:58:24;0.00;0.00;0.62;0.00;0.00;0.62;1.70;1.30;;;25.50;29.70;;;;;;2257851;61;20723;-63
2021/10/05 08:01:09;0.00;0.00;0.62;0.00;0.00;0.62;1.70;1.30;;;25.50;29.70;;;;;;2256908;61;20429;-64
2021/10/05 08:03:53;0.00;0.00;0.62;0.00;0.00;0.62;2.23;1.27;;;25.50;29.70;;;;;;2256949;61;20390;-63
2021/10/05 08:06:38;0.00;0.00;0.62;0.00;0.00;0.62;1.40;1.00;;;25.50;29.70;;;;;;2256869;61;20369;-64
2021/10/05 08:09:22;0.00;0.00;0.62;0.00;0.00;0.62;1.77;1.17;;;25.50;29.80;;;;;;2257530;61;20414;-64
2021/10/05 08:12:07;0.00;0.00;0.62;0.00;0.00;0.62;1.50;1.13;;;25.50;29.70;;;;;;2257193;61;20620;-63
2021/10/05 08:14:53;0.00;0.00;0.62;0.00;0.00;0.62;2.30;1.23;;;25.50;29.80;;;;;;2256905;61;20394;-63
2021/10/05 08:17:39;0.00;0.00;0.62;0.00;0.00;0.62;1.63;1.00;;;25.50;29.80;;;;;;2257374;61;20707;-65
2021/10/05 08:20:24;0.00;0.00;0.62;0.00;0.00;0.62;2.03;1.20;;;25.50;29.80;;;;;;2257707;61;20613;-63
2021/10/05 08:23:09;0.00;0.00;0.62;0.00;0.00;0.62;2.07;1.43;;;25.50;29.80;;;;;;2257543;61;20378;-63
2021/10/05 08:25:53;0.00;0.00;0.62;0.00;0.00;0.62;1.60;1.10;;;25.50;29.80;;;;;;2258301;61;20394;-62
2021/10/05 08:28:38;0.00;0.00;0.62;0.00;0.00;0.62;1.90;1.10;;;25.50;29.80;;;;;;2258150;61;20390;-65
2021/10/05 08:31:24;0.00;0.00;0.62;0.00;0.00;0.62;2.07;1.10;;;25.50;29.80;;;;;;2257776;61;20423;-62
2021/10/05 08:34:09;0.00;0.00;0.62;0.00;0.00;0.62;2.37;1.33;;;25.50;29.80;;;;;;2258244;61;20507;-61
2021/10/05 08:36:53;0.00;0.00;0.62;0.00;0.00;0.62;1.50;1.20;;;25.50;29.90;;;;;;2257568;61;20398;-63
2021/10/05 08:39:38;0.00;0.00;0.62;0.00;0.00;0.62;1.60;1.10;;;25.60;29.90;;;;;;2257897;61;20755;-62
2021/10/05 08:42:23;0.00;0.00;0.62;0.00;0.00;0.62;1.77;1.10;;;25.60;29.90;;;;;;2258411;61;20405;-64
2021/10/05 08:45:09;0.00;0.00;0.62;0.00;0.00;0.62;1.30;0.83;;;25.60;29.90;;;;;;2257418;61;20459;-63
2021/10/05 08:47:55;0.00;0.00;0.62;0.00;0.00;0.62;1.30;0.90;;;25.60;29.90;;;;;;2257987;61;20410;-62
2021/10/05 08:50:40;0.00;0.00;0.62;0.00;0.00;0.62;3.03;1.00;;;25.70;30.00;;;;;;2257921;61;20366;-63
2021/10/05 08:53:26;0.00;0.00;0.62;0.00;0.00;0.62;1.67;0.80;;;25.70;30.00;;;;;;2257423;61;20757;-64
2021/10/05 08:56:11;0.00;0.00;0.62;0.00;0.00;0.62;1.77;1.20;;;25.70;29.90;;;;;;2258580;61;20362;-67
2021/10/05 08:58:56;0.00;0.00;0.62;0.00;0.00;0.62;2.27;0.90;;;25.70;29.90;;;;;;2257593;61;20362;-63
2021/10/05 09:01:41;0.00;0.00;0.62;0.00;0.00;0.62;1.43;1.00;;;25.70;29.90;;;;;;2258231;61;20364;-63
2021/10/05 09:04:33;0.00;0.00;0.62;0.00;0.00;0.62;1.50;1.00;;;25.70;29.90;;;;;;2258327;61;20387;-61
2021/10/05 09:07:22;0.00;0.00;0.62;0.00;0.00;0.62;1.70;1.00;;;25.70;29.90;;;;;;2257477;61;20367;-65
2021/10/05 09:10:07;0.00;0.00;0.62;0.00;0.00;0.62;2.40;1.10;;;25.80;30.00;;;;;;2258248;61;20406;-61
2021/10/05 09:12:52;0.00;0.00;0.62;0.00;0.00;0.62;1.43;1.00;;;25.80;30.00;;;;;;2257567;61;20422;-63
2021/10/05 09:15:37;0.00;0.00;0.62;0.00;0.00;0.62;1.50;0.90;;;25.80;30.00;;;;;;2257702;61;20422;-63
2021/10/05 09:18:21;0.00;0.00;0.62;0.00;0.00;0.62;1.40;0.80;;;25.80;30.00;;;;;;2258538;61;20487;-65
2021/10/05 09:21:16;0.00;0.00;0.62;0.00;0.00;0.62;1.60;0.97;;;25.80;30.00;;;;;;2257499;61;20359;-61
2021/10/05 09:24:04;0.00;0.00;0.62;0.00;0.00;0.62;1.30;0.80;;;25.80;30.00;;;;;;2257577;61;20480;-64
2021/10/05 09:26:52;0.00;0.00;0.62;0.00;0.00;0.62;1.67;0.93;;;25.90;30.00;;;;;;2258142;61;20367;-63
2021/10/05 09:29:38;0.00;0.00;0.62;0.00;0.00;0.62;1.70;1.20;;;25.90;30.00;;;;;;2257516;61;20455;-61
2021/10/05 09:32:24;0.00;0.00;0.62;0.00;0.00;0.62;1.50;0.97;;;25.90;30.00;;;;;;2257987;61;20370;-62
2021/10/05 09:35:09;0.00;0.00;0.62;0.00;0.00;0.62;2.70;1.10;;;25.90;30.00;;;;;;2257524;61;20738;-61
2021/10/05 09:37:55;0.00;0.00;0.62;0.00;0.00;0.62;1.30;0.90;;;25.90;30.00;;;;;;2257635;61;20358;-61
2021/10/05 09:40:40;0.00;0.00;0.62;0.00;0.00;0.62;2.67;1.03;;;26.00;30.00;;;;;;2258159;61;20467;-62
2021/10/05 09:43:26;0.00;0.00;0.62;0.00;0.00;0.62;1.50;0.90;;;26.00;30.00;;;;;;2257356;61;20363;-62
2021/10/05 09:46:13;0.00;0.00;0.62;0.00;0.00;0.62;1.87;0.80;;;26.00;30.00;;;;;;2257847;61;20362;-61
2021/10/05 09:49:02;0.00;0.00;0.62;0.00;0.00;0.62;1.20;0.80;;;26.00;30.00;;;;;;2258099;61;20438;-61
2021/10/05 09:51:56;0.00;0.00;0.62;0.00;0.00;0.62;1.40;0.87;;;26.00;30.00;;;;;;2257485;61;20609;-64
2021/10/05 09:54:42;0.00;0.00;0.62;0.00;0.00;0.62;1.40;0.80;;;26.00;30.00;;;;;;2257998;61;20424;-61
2021/10/05 09:57:29;0.00;0.00;0.62;0.00;0.00;0.62;1.47;0.93;;;26.00;30.00;;;;;;2257798;61;20359;-61
2021/10/05 10:00:15;0.00;0.00;0.62;0.00;0.00;0.62;1.83;0.90;;;26.00;30.00;;;;;;2257587;61;20362;-64
2021/10/05 10:03:04;0.00;0.00;0.62;0.00;0.00;0.62;1.70;0.93;;;26.00;30.00;;;;;;2257903;61;20444;-63
2021/10/05 10:05:49;0.00;0.00;0.62;0.00;0.00;0.62;1.97;1.10;;;26.10;30.00;;;;;;2257402;61;20632;-63
2021/10/05 10:08:35;0.00;0.00;0.62;0.00;0.00;0.62;1.57;0.80;;;26.00;30.00;;;;;;2257625;61;20382;-63
2021/10/05 10:11:21;0.00;0.00;0.62;0.00;0.00;0.62;1.77;0.90;;;26.00;29.90;;;;;;2258196;61;20371;-63
2021/10/05 10:14:06;0.00;0.00;0.62;0.00;0.00;0.62;1.70;1.03;;;26.10;30.00;;;;;;2257322;61;20387;-61
2021/10/05 10:16:51;0.00;0.00;0.62;0.00;0.00;0.62;4.23;0.80;;;26.10;30.00;;;;;;2257892;61;20428;-64
2021/10/05 10:19:36;0.00;0.00;0.62;0.00;0.00;0.62;1.67;0.80;;;26.10;30.00;;;;;;2257764;61;20391;-61
2021/10/05 10:22:21;0.00;0.00;0.62;0.00;0.00;0.62;1.30;0.80;;;26.20;30.00;;;;;;2259727;61;20759;-64
2021/10/05 10:25:17;0.00;0.00;0.62;0.00;0.00;0.62;1.50;0.90;;;26.10;30.00;;;;;;2257905;61;20472;-64
2021/10/05 10:28:13;0.00;0.00;0.62;0.00;0.00;0.62;1.50;0.87;;;26.10;30.00;;;;;;2257293;61;20407;-64
2021/10/05 10:31:01;0.00;0.00;0.62;0.00;0.00;0.62;1.60;0.90;;;26.10;30.00;;;;;;2257747;61;20854;-63
2021/10/05 10:33:49;0.00;0.00;0.62;0.00;0.00;0.62;1.63;0.90;;;26.20;30.00;;;;;;2257833;61;20395;-64
2021/10/05 10:36:37;0.00;0.00;0.62;0.00;0.00;0.62;1.60;0.93;;;26.10;29.90;;;;;;2259919;61;20410;-63
2021/10/05 10:39:24;0.00;0.00;0.62;0.00;0.00;0.62;1.40;0.80;;;26.20;30.00;;;;;;2258062;61;20367;-63
2021/10/05 10:42:09;0.00;0.00;0.62;0.00;0.00;0.62;1.50;0.90;;;26.20;30.00;;;;;;2257492;61;20422;-64
2021/10/05 10:44:56;0.00;0.00;0.62;0.00;0.00;0.62;1.47;0.80;;;26.20;30.00;;;;;;2257317;61;20410;-63
2021/10/05 10:47:42;0.00;0.00;0.62;0.00;0.00;0.62;1.40;0.90;;;26.20;30.00;;;;;;2257941;61;20847;-63
2021/10/05 10:50:35;0.00;0.00;0.62;0.00;0.00;0.62;1.20;0.70;;;26.20;30.00;;;;;;2257185;61;20398;-63
2021/10/05 10:53:36;0.00;0.00;0.62;0.00;0.00;0.62;1.70;0.90;;;26.20;30.00;;;;;;2257446;61;20678;-64